sensor_id;sensor_type;location;lat;lon;timestamp;temperature;humidity
72930;DHT22;61073;54.260;20.816;2022-08-01T00:00:12;23.20;58.60
72930;DHT22;61073;54.260;20.816;2022-08-01T00:02:39;23.20;58.60
72930;DHT22;61073;54.260;20.816;2022-08-01T00:05:06;23.20;58.60
72930;DHT22;61073;54.260;20.816;2022-08-01T00:07:34;23.20;58.70
72930;DHT22;61073;54.260;20.816;2022-08-01T00:10:01;23.20;58.60
72930;DHT22;61073;54.260;20.816;2022-08-01T00:12:27;23.20;58.60
72930;DHT22;61073;54.260;20.816;2022-08-01T00:14:54;23.20;58.60
72930;DHT22;61073;54.260;20.816;2022-08-01T00:17:20;23.20;58.60
72930;DHT22;61073;54.260;20.816;2022-08-01T00:19:47;23.20;58.60
72930;DHT22;61073;54.260;20.816;2022-08-01T00:22:13;23.20;58.70
72930;DHT22;61073;54.260;20.816;2022-08-01T00:24:40;23.20;58.60
72930;DHT22;61073;54.260;20.816;2022-08-01T00:27:08;23.20;58.60
72930;DHT22;61073;54.260;20.816;2022-08-01T00:29:34;23.20;58.70
72930;DHT22;61073;54.260;20.816;2022-08-01T00:32:01;23.20;58.70
72930;DHT22;61073;54.260;20.816;2022-08-01T00:34:27;23.20;58.70
72930;DHT22;61073;54.260;20.816;2022-08-01T00:36:54;23.20;58.70
72930;DHT22;61073;54.260;20.816;2022-08-01T00:39:20;23.20;58.70
72930;DHT22;61073;54.260;20.816;2022-08-01T00:41:47;23.20;58.70
72930;DHT22;61073;54.260;20.816;2022-08-01T00:44:13;23.20;58.70
72930;DHT22;61073;54.260;20.816;2022-08-01T00:46:40;23.20;58.70
72930;DHT22;61073;54.260;20.816;2022-08-01T00:49:07;23.20;58.70
72930;DHT22;61073;54.260;20.816;2022-08-01T00:51:33;23.20;58.70
72930;DHT22;61073;54.260;20.816;2022-08-01T00:54:00;23.20;58.70
72930;DHT22;61073;54.260;20.816;2022-08-01T00:56:27;23.20;58.70
72930;DHT22;61073;54.260;20.816;2022-08-01T00:58:54;23.20;58.70
72930;DHT22;61073;54.260;20.816;2022-08-01T01:01:21;23.20;58.70
72930;DHT22;61073;54.260;20.816;2022-08-01T01:03:48;23.20;58.70
72930;DHT22;61073;54.260;20.816;2022-08-01T01:06:28;23.20;58.70
72930;DHT22;61073;54.260;20.816;2022-08-01T01:11:51;23.20;58.70
72930;DHT22;61073;54.260;20.816;2022-08-01T01:14:21;23.20;58.70
72930;DHT22;61073;54.260;20.816;2022-08-01T01:16:50;23.20;58.70
72930;DHT22;61073;54.260;20.816;2022-08-01T01:19:21;23.20;58.70
72930;DHT22;61073;54.260;20.816;2022-08-01T01:24:40;23.20;58.70
72930;DHT22;61073;54.260;20.816;2022-08-01T01:27:35;23.20;58.70
72930;DHT22;61073;54.260;20.816;2022-08-01T01:30:00;23.20;58.70
72930;DHT22;61073;54.260;20.816;2022-08-01T01:32:35;23.20;58.70
72930;DHT22;61073;54.260;20.816;2022-08-01T01:35:04;23.20;58.70
72930;DHT22;61073;54.260;20.816;2022-08-01T01:37:32;23.20;58.70
72930;DHT22;61073;54.260;20.816;2022-08-01T01:39:59;23.20;58.70
72930;DHT22;61073;54.260;20.816;2022-08-01T01:42:26;23.20;58.70
72930;DHT22;61073;54.260;20.816;2022-08-01T01:44:52;23.20;58.70
72930;DHT22;61073;54.260;20.816;2022-08-01T01:47:20;23.20;58.70
72930;DHT22;61073;54.260;20.816;2022-08-01T01:49:47;23.10;58.60
72930;DHT22;61073;54.260;20.816;2022-08-01T01:52:16;23.20;58.70
72930;DHT22;61073;54.260;20.816;2022-08-01T01:54:44;23.10;59.20
72930;DHT22;61073;54.260;20.816;2022-08-01T01:57:12;23.10;58.60
72930;DHT22;61073;54.260;20.816;2022-08-01T01:59:39;23.10;58.60
72930;DHT22;61073;54.260;20.816;2022-08-01T02:02:06;23.20;58.70
72930;DHT22;61073;54.260;20.816;2022-08-01T02:04:35;23.20;58.70
72930;DHT22;61073;54.260;20.816;2022-08-01T02:07:03;23.20;58.70
72930;DHT22;61073;54.260;20.816;2022-08-01T02:09:31;23.10;58.60
72930;DHT22;61073;54.260;20.816;2022-08-01T02:12:00;23.20;58.70
72930;DHT22;61073;54.260;20.816;2022-08-01T02:14:28;23.20;58.70
72930;DHT22;61073;54.260;20.816;2022-08-01T02:16:55;23.20;58.70
72930;DHT22;61073;54.260;20.816;2022-08-01T02:19:23;23.20;58.70
72930;DHT22;61073;54.260;20.816;2022-08-01T02:21:57;23.20;58.70
72930;DHT22;61073;54.260;20.816;2022-08-01T02:24:35;23.20;58.70
72930;DHT22;61073;54.260;20.816;2022-08-01T02:27:04;23.20;58.70
72930;DHT22;61073;54.260;20.816;2022-08-01T02:29:34;23.20;58.70
72930;DHT22;61073;54.260;20.816;2022-08-01T02:32:03;23.10;58.70
72930;DHT22;61073;54.260;20.816;2022-08-01T02:34:31;23.20;58.70
72930;DHT22;61073;54.260;20.816;2022-08-01T02:36:59;23.10;58.70
72930;DHT22;61073;54.260;20.816;2022-08-01T02:39:26;23.10;58.60
72930;DHT22;61073;54.260;20.816;2022-08-01T02:41:55;23.20;58.70
72930;DHT22;61073;54.260;20.816;2022-08-01T02:44:24;23.20;58.70
72930;DHT22;61073;54.260;20.816;2022-08-01T02:46:57;23.20;58.70
72930;DHT22;61073;54.260;20.816;2022-08-01T02:49:31;23.20;58.70
72930;DHT22;61073;54.260;20.816;2022-08-01T02:52:00;23.20;58.70
72930;DHT22;61073;54.260;20.816;2022-08-01T02:54:30;23.20;58.70
72930;DHT22;61073;54.260;20.816;2022-08-01T02:56:57;23.20;59.20
72930;DHT22;61073;54.260;20.816;2022-08-01T02:59:24;23.10;58.60
72930;DHT22;61073;54.260;20.816;2022-08-01T03:01:53;23.10;58.60
72930;DHT22;61073;54.260;20.816;2022-08-01T03:04:21;23.20;58.60
72930;DHT22;61073;54.260;20.816;2022-08-01T03:06:48;23.20;58.60
72930;DHT22;61073;54.260;20.816;2022-08-01T03:09:16;23.20;58.60
72930;DHT22;61073;54.260;20.816;2022-08-01T03:11:43;23.10;58.60
72930;DHT22;61073;54.260;20.816;2022-08-01T03:14:11;23.20;58.60
72930;DHT22;61073;54.260;20.816;2022-08-01T03:16:39;23.20;58.60
72930;DHT22;61073;54.260;20.816;2022-08-01T03:19:07;23.10;58.50
72930;DHT22;61073;54.260;20.816;2022-08-01T03:21:34;23.20;58.60
72930;DHT22;61073;54.260;20.816;2022-08-01T03:24:01;23.20;58.50
72930;DHT22;61073;54.260;20.816;2022-08-01T03:26:29;23.20;58.50
72930;DHT22;61073;54.260;20.816;2022-08-01T03:28:57;23.10;58.50
72930;DHT22;61073;54.260;20.816;2022-08-01T03:31:24;23.20;58.50
72930;DHT22;61073;54.260;20.816;2022-08-01T03:33:51;23.20;58.50
72930;DHT22;61073;54.260;20.816;2022-08-01T03:36:20;23.20;58.50
72930;DHT22;61073;54.260;20.816;2022-08-01T03:38:48;23.20;58.50
72930;DHT22;61073;54.260;20.816;2022-08-01T03:41:18;23.10;58.40
72930;DHT22;61073;54.260;20.816;2022-08-01T03:43:48;23.20;58.50
72930;DHT22;61073;54.260;20.816;2022-08-01T03:46:19;23.20;58.40
72930;DHT22;61073;54.260;20.816;2022-08-01T03:48:47;23.20;58.40
72930;DHT22;61073;54.260;20.816;2022-08-01T03:51:15;23.20;58.40
72930;DHT22;61073;54.260;20.816;2022-08-01T03:53:42;23.20;58.30
72930;DHT22;61073;54.260;20.816;2022-08-01T03:56:08;23.20;58.30
72930;DHT22;61073;54.260;20.816;2022-08-01T03:58:36;23.20;58.30
72930;DHT22;61073;54.260;20.816;2022-08-01T04:01:06;23.20;58.20
72930;DHT22;61073;54.260;20.816;2022-08-01T04:03:33;23.20;58.20
72930;DHT22;61073;54.260;20.816;2022-08-01T04:06:03;23.20;58.20
72930;DHT22;61073;54.260;20.816;2022-08-01T04:08:33;23.20;58.20
72930;DHT22;61073;54.260;20.816;2022-08-01T04:11:00;23.20;58.20
72930;DHT22;61073;54.260;20.816;2022-08-01T04:13:27;23.20;58.20
72930;DHT22;61073;54.260;20.816;2022-08-01T04:15:53;23.30;58.20
72930;DHT22;61073;54.260;20.816;2022-08-01T04:18:20;23.20;58.20
72930;DHT22;61073;54.260;20.816;2022-08-01T04:20:47;23.20;58.20
72930;DHT22;61073;54.260;20.816;2022-08-01T04:23:20;23.20;58.20
72930;DHT22;61073;54.260;20.816;2022-08-01T04:25:49;23.30;58.20
72930;DHT22;61073;54.260;20.816;2022-08-01T04:28:16;23.20;58.20
72930;DHT22;61073;54.260;20.816;2022-08-01T04:30:44;23.30;58.20
72930;DHT22;61073;54.260;20.816;2022-08-01T04:33:13;23.30;58.20
72930;DHT22;61073;54.260;20.816;2022-08-01T04:35:45;23.30;58.20
72930;DHT22;61073;54.260;20.816;2022-08-01T04:38:13;23.30;58.10
72930;DHT22;61073;54.260;20.816;2022-08-01T04:40:44;23.30;58.10
72930;DHT22;61073;54.260;20.816;2022-08-01T04:43:12;23.30;58.10
72930;DHT22;61073;54.260;20.816;2022-08-01T04:45:40;23.30;58.00
72930;DHT22;61073;54.260;20.816;2022-08-01T04:48:07;23.30;57.90
72930;DHT22;61073;54.260;20.816;2022-08-01T04:50:35;23.40;58.00
72930;DHT22;61073;54.260;20.816;2022-08-01T04:53:02;23.40;57.90
72930;DHT22;61073;54.260;20.816;2022-08-01T04:55:29;23.40;57.90
72930;DHT22;61073;54.260;20.816;2022-08-01T04:57:57;23.40;57.90
72930;DHT22;61073;54.260;20.816;2022-08-01T05:00:24;23.40;57.80
72930;DHT22;61073;54.260;20.816;2022-08-01T05:02:50;23.40;57.80
72930;DHT22;61073;54.260;20.816;2022-08-01T05:05:18;23.50;57.80
72930;DHT22;61073;54.260;20.816;2022-08-01T05:07:44;23.50;57.80
72930;DHT22;61073;54.260;20.816;2022-08-01T05:10:11;23.50;57.70
72930;DHT22;61073;54.260;20.816;2022-08-01T05:12:37;23.50;57.70
72930;DHT22;61073;54.260;20.816;2022-08-01T05:15:04;23.50;57.70
72930;DHT22;61073;54.260;20.816;2022-08-01T05:17:34;23.50;57.70
72930;DHT22;61073;54.260;20.816;2022-08-01T05:20:01;23.60;57.50
72930;DHT22;61073;54.260;20.816;2022-08-01T05:22:28;23.60;57.40
72930;DHT22;61073;54.260;20.816;2022-08-01T05:24:56;23.60;57.30
72930;DHT22;61073;54.260;20.816;2022-08-01T05:27:23;23.70;57.20
72930;DHT22;61073;54.260;20.816;2022-08-01T05:29:49;23.70;57.00
72930;DHT22;61073;54.260;20.816;2022-08-01T05:32:16;23.70;56.90
72930;DHT22;61073;54.260;20.816;2022-08-01T05:34:43;23.70;56.80
72930;DHT22;61073;54.260;20.816;2022-08-01T05:37:09;23.80;56.80
72930;DHT22;61073;54.260;20.816;2022-08-01T05:39:36;23.90;56.60
72930;DHT22;61073;54.260;20.816;2022-08-01T05:42:03;23.90;56.50
72930;DHT22;61073;54.260;20.816;2022-08-01T05:44:29;24.00;56.40
72930;DHT22;61073;54.260;20.816;2022-08-01T05:46:56;24.00;56.30
72930;DHT22;61073;54.260;20.816;2022-08-01T05:49:22;24.00;56.30
72930;DHT22;61073;54.260;20.816;2022-08-01T05:51:49;24.00;56.30
72930;DHT22;61073;54.260;20.816;2022-08-01T05:54:16;24.00;56.40
72930;DHT22;61073;54.260;20.816;2022-08-01T05:56:42;24.00;56.40
72930;DHT22;61073;54.260;20.816;2022-08-01T05:59:09;24.00;56.40
72930;DHT22;61073;54.260;20.816;2022-08-01T06:01:35;24.00;56.30
72930;DHT22;61073;54.260;20.816;2022-08-01T06:04:02;24.00;56.30
72930;DHT22;61073;54.260;20.816;2022-08-01T06:06:29;24.10;56.30
72930;DHT22;61073;54.260;20.816;2022-08-01T06:08:56;24.00;56.20
72930;DHT22;61073;54.260;20.816;2022-08-01T06:11:23;24.00;56.20
72930;DHT22;61073;54.260;20.816;2022-08-01T06:13:49;24.10;56.20
72930;DHT22;61073;54.260;20.816;2022-08-01T06:16:17;24.10;56.10
72930;DHT22;61073;54.260;20.816;2022-08-01T06:18:44;24.10;56.10
72930;DHT22;61073;54.260;20.816;2022-08-01T06:21:11;24.10;56.10
72930;DHT22;61073;54.260;20.816;2022-08-01T06:23:37;24.10;56.00
72930;DHT22;61073;54.260;20.816;2022-08-01T06:26:04;24.10;56.10
72930;DHT22;61073;54.260;20.816;2022-08-01T06:28:32;24.10;56.00
72930;DHT22;61073;54.260;20.816;2022-08-01T06:30:58;24.20;55.90
72930;DHT22;61073;54.260;20.816;2022-08-01T06:33:26;24.20;55.90
72930;DHT22;61073;54.260;20.816;2022-08-01T06:35:53;24.20;55.90
72930;DHT22;61073;54.260;20.816;2022-08-01T06:38:19;24.10;55.80
72930;DHT22;61073;54.260;20.816;2022-08-01T06:40:46;24.20;55.90
72930;DHT22;61073;54.260;20.816;2022-08-01T06:43:13;24.20;55.70
72930;DHT22;61073;54.260;20.816;2022-08-01T06:45:39;24.30;55.50
72930;DHT22;61073;54.260;20.816;2022-08-01T06:48:07;24.30;55.30
72930;DHT22;61073;54.260;20.816;2022-08-01T06:50:33;24.40;55.00
72930;DHT22;61073;54.260;20.816;2022-08-01T06:53:02;24.50;54.80
72930;DHT22;61073;54.260;20.816;2022-08-01T06:55:28;24.50;54.80
72930;DHT22;61073;54.260;20.816;2022-08-01T06:57:55;24.50;54.90
72930;DHT22;61073;54.260;20.816;2022-08-01T07:00:22;24.40;54.90
72930;DHT22;61073;54.260;20.816;2022-08-01T07:02:49;24.40;55.00
72930;DHT22;61073;54.260;20.816;2022-08-01T07:05:16;24.40;55.00
72930;DHT22;61073;54.260;20.816;2022-08-01T07:07:42;24.40;55.60
72930;DHT22;61073;54.260;20.816;2022-08-01T07:10:09;24.40;55.00
72930;DHT22;61073;54.260;20.816;2022-08-01T07:12:36;24.40;55.00
72930;DHT22;61073;54.260;20.816;2022-08-01T07:15:04;24.40;55.00
72930;DHT22;61073;54.260;20.816;2022-08-01T07:17:31;24.40;55.00
72930;DHT22;61073;54.260;20.816;2022-08-01T07:19:58;24.50;54.90
72930;DHT22;61073;54.260;20.816;2022-08-01T07:22:24;24.50;54.80
72930;DHT22;61073;54.260;20.816;2022-08-01T07:24:51;24.50;54.70
72930;DHT22;61073;54.260;20.816;2022-08-01T07:27:17;24.50;54.70
72930;DHT22;61073;54.260;20.816;2022-08-01T07:29:44;24.50;55.40
72930;DHT22;61073;54.260;20.816;2022-08-01T07:32:10;24.40;54.90
72930;DHT22;61073;54.260;20.816;2022-08-01T07:34:37;24.40;54.80
72930;DHT22;61073;54.260;20.816;2022-08-01T07:37:03;24.50;54.60
72930;DHT22;61073;54.260;20.816;2022-08-01T07:39:30;24.50;54.50
72930;DHT22;61073;54.260;20.816;2022-08-01T07:41:57;24.50;54.60
72930;DHT22;61073;54.260;20.816;2022-08-01T07:44:24;24.40;54.50
72930;DHT22;61073;54.260;20.816;2022-08-01T07:46:50;24.40;54.60
72930;DHT22;61073;54.260;20.816;2022-08-01T07:49:17;24.40;54.60
72930;DHT22;61073;54.260;20.816;2022-08-01T07:51:43;24.40;54.50
72930;DHT22;61073;54.260;20.816;2022-08-01T07:54:10;24.40;54.60
72930;DHT22;61073;54.260;20.816;2022-08-01T07:56:36;24.40;54.60
72930;DHT22;61073;54.260;20.816;2022-08-01T07:59:03;24.40;54.50
72930;DHT22;61073;54.260;20.816;2022-08-01T08:01:29;24.40;54.30
72930;DHT22;61073;54.260;20.816;2022-08-01T08:03:56;24.50;54.20
72930;DHT22;61073;54.260;20.816;2022-08-01T08:06:22;24.50;54.10
72930;DHT22;61073;54.260;20.816;2022-08-01T08:08:49;24.60;53.90
72930;DHT22;61073;54.260;20.816;2022-08-01T08:11:16;24.70;53.60
72930;DHT22;61073;54.260;20.816;2022-08-01T08:13:42;24.80;53.40
72930;DHT22;61073;54.260;20.816;2022-08-01T08:16:09;24.80;53.20
72930;DHT22;61073;54.260;20.816;2022-08-01T08:18:35;24.80;53.20
72930;DHT22;61073;54.260;20.816;2022-08-01T08:21:02;24.80;53.30
72930;DHT22;61073;54.260;20.816;2022-08-01T08:23:31;24.80;53.40
72930;DHT22;61073;54.260;20.816;2022-08-01T08:26:16;24.80;53.30
72930;DHT22;61073;54.260;20.816;2022-08-01T08:28:43;24.80;53.40
72930;DHT22;61073;54.260;20.816;2022-08-01T08:31:09;24.80;53.50
72930;DHT22;61073;54.260;20.816;2022-08-01T08:33:36;24.70;53.50
72930;DHT22;61073;54.260;20.816;2022-08-01T08:36:02;24.80;53.40
72930;DHT22;61073;54.260;20.816;2022-08-01T08:38:29;24.90;53.20
72930;DHT22;61073;54.260;20.816;2022-08-01T08:40:56;24.80;53.20
72930;DHT22;61073;54.260;20.816;2022-08-01T08:43:24;24.80;53.40
72930;DHT22;61073;54.260;20.816;2022-08-01T08:45:51;24.80;53.50
72930;DHT22;61073;54.260;20.816;2022-08-01T08:48:18;24.70;53.50
72930;DHT22;61073;54.260;20.816;2022-08-01T08:50:45;24.70;53.50
72930;DHT22;61073;54.260;20.816;2022-08-01T08:53:12;24.70;53.40
72930;DHT22;61073;54.260;20.816;2022-08-01T08:55:42;24.70;53.60
72930;DHT22;61073;54.260;20.816;2022-08-01T08:58:10;24.70;53.80
72930;DHT22;61073;54.260;20.816;2022-08-01T09:00:39;24.70;53.60
72930;DHT22;61073;54.260;20.816;2022-08-01T09:03:05;24.70;53.70
72930;DHT22;61073;54.260;20.816;2022-08-01T09:05:32;24.70;53.40
72930;DHT22;61073;54.260;20.816;2022-08-01T09:07:59;24.80;53.40
72930;DHT22;61073;54.260;20.816;2022-08-01T09:10:26;24.80;53.50
72930;DHT22;61073;54.260;20.816;2022-08-01T09:15:46;24.90;53.10
72930;DHT22;61073;54.260;20.816;2022-08-01T09:23:47;25.00;52.90
72930;DHT22;61073;54.260;20.816;2022-08-01T09:26:15;24.90;53.10
72930;DHT22;61073;54.260;20.816;2022-08-01T09:28:43;25.00;53.00
72930;DHT22;61073;54.260;20.816;2022-08-01T09:31:13;25.00;52.70
72930;DHT22;61073;54.260;20.816;2022-08-01T09:36:42;25.20;52.40
72930;DHT22;61073;54.260;20.816;2022-08-01T09:39:13;25.20;52.40
72930;DHT22;61073;54.260;20.816;2022-08-01T09:41:40;25.10;52.50
72930;DHT22;61073;54.260;20.816;2022-08-01T09:44:06;25.10;52.50
72930;DHT22;61073;54.260;20.816;2022-08-01T09:46:33;25.10;52.50
72930;DHT22;61073;54.260;20.816;2022-08-01T09:49:00;25.10;52.30
72930;DHT22;61073;54.260;20.816;2022-08-01T09:51:34;25.10;52.20
72930;DHT22;61073;54.260;20.816;2022-08-01T09:54:02;25.20;52.10
72930;DHT22;61073;54.260;20.816;2022-08-01T09:56:37;25.10;52.10
72930;DHT22;61073;54.260;20.816;2022-08-01T09:59:04;25.10;52.20
72930;DHT22;61073;54.260;20.816;2022-08-01T10:04:20;25.10;52.50
72930;DHT22;61073;54.260;20.816;2022-08-01T10:06:47;25.10;52.30
72930;DHT22;61073;54.260;20.816;2022-08-01T10:12:04;25.10;52.10
72930;DHT22;61073;54.260;20.816;2022-08-01T10:14:31;25.10;52.10
72930;DHT22;61073;54.260;20.816;2022-08-01T10:16:58;25.20;52.10
72930;DHT22;61073;54.260;20.816;2022-08-01T10:19:27;25.20;51.90
72930;DHT22;61073;54.260;20.816;2022-08-01T10:21:55;25.20;52.60
72930;DHT22;61073;54.260;20.816;2022-08-01T10:24:25;25.20;52.00
72930;DHT22;61073;54.260;20.816;2022-08-01T10:26:52;25.20;52.00
72930;DHT22;61073;54.260;20.816;2022-08-01T10:29:21;25.10;52.00
72930;DHT22;61073;54.260;20.816;2022-08-01T10:31:48;25.20;51.90
72930;DHT22;61073;54.260;20.816;2022-08-01T10:34:15;25.20;51.90
72930;DHT22;61073;54.260;20.816;2022-08-01T10:36:45;25.20;52.00
72930;DHT22;61073;54.260;20.816;2022-08-01T10:39:12;25.10;52.20
72930;DHT22;61073;54.260;20.816;2022-08-01T10:41:39;25.10;52.30
72930;DHT22;61073;54.260;20.816;2022-08-01T10:44:07;25.10;52.40
72930;DHT22;61073;54.260;20.816;2022-08-01T10:46:37;25.10;52.30
72930;DHT22;61073;54.260;20.816;2022-08-01T10:51:30;25.20;52.20
72930;DHT22;61073;54.260;20.816;2022-08-01T10:53:57;25.10;52.70
72930;DHT22;61073;54.260;20.816;2022-08-01T10:56:38;25.10;52.20
72930;DHT22;61073;54.260;20.816;2022-08-01T10:59:05;25.10;52.20
72930;DHT22;61073;54.260;20.816;2022-08-01T11:01:32;25.20;52.00
72930;DHT22;61073;54.260;20.816;2022-08-01T11:09:02;25.30;52.00
72930;DHT22;61073;54.260;20.816;2022-08-01T11:11:29;25.20;52.10
72930;DHT22;61073;54.260;20.816;2022-08-01T11:16:51;25.20;52.60
72930;DHT22;61073;54.260;20.816;2022-08-01T11:19:17;25.20;51.90
72930;DHT22;61073;54.260;20.816;2022-08-01T11:21:58;25.20;51.70
72930;DHT22;61073;54.260;20.816;2022-08-01T11:27:18;25.40;51.20
72930;DHT22;61073;54.260;20.816;2022-08-01T11:32:29;25.70;50.60
72930;DHT22;61073;54.260;20.816;2022-08-01T11:35:00;25.80;50.60
72930;DHT22;61073;54.260;20.816;2022-08-01T11:37:28;25.80;50.30
72930;DHT22;61073;54.260;20.816;2022-08-01T11:42:40;26.20;49.40
72930;DHT22;61073;54.260;20.816;2022-08-01T11:45:06;26.10;49.50
72930;DHT22;61073;54.260;20.816;2022-08-01T11:53:04;26.90;47.90
72930;DHT22;61073;54.260;20.816;2022-08-01T11:55:31;27.90;45.70
72930;DHT22;61073;54.260;20.816;2022-08-01T11:58:02;29.50;42.00
72930;DHT22;61073;54.260;20.816;2022-08-01T12:00:29;30.50;40.10
72930;DHT22;61073;54.260;20.816;2022-08-01T12:02:58;31.00;38.90
72930;DHT22;61073;54.260;20.816;2022-08-01T12:05:25;30.80;39.20
72930;DHT22;61073;54.260;20.816;2022-08-01T12:07:53;30.50;39.90
72930;DHT22;61073;54.260;20.816;2022-08-01T12:10:20;31.30;38.30
72930;DHT22;61073;54.260;20.816;2022-08-01T12:12:48;31.90;37.10
72930;DHT22;61073;54.260;20.816;2022-08-01T12:15:15;31.80;37.20
72930;DHT22;61073;54.260;20.816;2022-08-01T12:17:43;31.80;37.30
72930;DHT22;61073;54.260;20.816;2022-08-01T12:20:10;31.50;37.90
72930;DHT22;61073;54.260;20.816;2022-08-01T12:22:37;31.40;37.80
72930;DHT22;61073;54.260;20.816;2022-08-01T12:25:11;32.20;36.40
72930;DHT22;61073;54.260;20.816;2022-08-01T12:27:38;32.70;35.50
72930;DHT22;61073;54.260;20.816;2022-08-01T12:30:06;33.20;34.80
72930;DHT22;61073;54.260;20.816;2022-08-01T12:32:34;33.10;34.80
72930;DHT22;61073;54.260;20.816;2022-08-01T12:37:50;32.30;36.20
72930;DHT22;61073;54.260;20.816;2022-08-01T12:42:47;33.20;34.50
72930;DHT22;61073;54.260;20.816;2022-08-01T12:45:19;33.20;34.70
72930;DHT22;61073;54.260;20.816;2022-08-01T12:47:46;33.60;33.80
72930;DHT22;61073;54.260;20.816;2022-08-01T12:53:07;33.10;34.70
72930;DHT22;61073;54.260;20.816;2022-08-01T12:55:43;32.60;35.40
72930;DHT22;61073;54.260;20.816;2022-08-01T12:58:10;31.90;36.90
72930;DHT22;61073;54.260;20.816;2022-08-01T13:00:41;30.80;38.80
72930;DHT22;61073;54.260;20.816;2022-08-01T13:08:22;32.50;35.70
72930;DHT22;61073;54.260;20.816;2022-08-01T13:10:49;33.20;34.50
72930;DHT22;61073;54.260;20.816;2022-08-01T13:13:17;33.60;33.80
72930;DHT22;61073;54.260;20.816;2022-08-01T13:15:44;34.00;33.30
72930;DHT22;61073;54.260;20.816;2022-08-01T13:23:42;34.00;33.20
72930;DHT22;61073;54.260;20.816;2022-08-01T13:29:12;34.40;33.20
72930;DHT22;61073;54.260;20.816;2022-08-01T13:31:39;34.50;32.30
72930;DHT22;61073;54.260;20.816;2022-08-01T13:34:06;34.50;32.20
72930;DHT22;61073;54.260;20.816;2022-08-01T13:36:33;33.70;33.80
72930;DHT22;61073;54.260;20.816;2022-08-01T13:39:00;32.80;34.80
72930;DHT22;61073;54.260;20.816;2022-08-01T13:41:45;32.60;35.60
72930;DHT22;61073;54.260;20.816;2022-08-01T13:44:12;33.30;34.20
72930;DHT22;61073;54.260;20.816;2022-08-01T13:46:40;33.80;33.40
72930;DHT22;61073;54.260;20.816;2022-08-01T13:49:08;33.80;33.40
72930;DHT22;61073;54.260;20.816;2022-08-01T13:51:35;33.90;33.10
72930;DHT22;61073;54.260;20.816;2022-08-01T13:54:02;33.80;33.20
72930;DHT22;61073;54.260;20.816;2022-08-01T13:56:29;33.20;34.40
72930;DHT22;61073;54.260;20.816;2022-08-01T13:58:56;32.20;36.40
72930;DHT22;61073;54.260;20.816;2022-08-01T14:01:24;32.60;35.50
72930;DHT22;61073;54.260;20.816;2022-08-01T14:03:50;33.10;34.60
72930;DHT22;61073;54.260;20.816;2022-08-01T14:06:18;33.50;33.70
72930;DHT22;61073;54.260;20.816;2022-08-01T14:08:46;33.90;33.30
72930;DHT22;61073;54.260;20.816;2022-08-01T14:11:13;34.00;32.90
72930;DHT22;61073;54.260;20.816;2022-08-01T14:13:41;34.20;32.80
72930;DHT22;61073;54.260;20.816;2022-08-01T14:16:07;34.30;32.50
72930;DHT22;61073;54.260;20.816;2022-08-01T14:18:34;34.40;32.50
72930;DHT22;61073;54.260;20.816;2022-08-01T14:21:01;34.50;32.30
72930;DHT22;61073;54.260;20.816;2022-08-01T14:23:28;34.20;32.80
72930;DHT22;61073;54.260;20.816;2022-08-01T14:25:55;34.10;33.00
72930;DHT22;61073;54.260;20.816;2022-08-01T14:28:22;34.20;32.60
72930;DHT22;61073;54.260;20.816;2022-08-01T14:30:50;34.40;32.50
72930;DHT22;61073;54.260;20.816;2022-08-01T14:33:16;34.50;32.20
72930;DHT22;61073;54.260;20.816;2022-08-01T14:35:43;34.50;32.30
72930;DHT22;61073;54.260;20.816;2022-08-01T14:38:10;34.60;32.20
72930;DHT22;61073;54.260;20.816;2022-08-01T14:40:36;34.60;32.20
72930;DHT22;61073;54.260;20.816;2022-08-01T14:43:03;34.60;32.20
72930;DHT22;61073;54.260;20.816;2022-08-01T14:45:30;34.60;32.20
72930;DHT22;61073;54.260;20.816;2022-08-01T14:47:57;34.60;32.20
72930;DHT22;61073;54.260;20.816;2022-08-01T14:50:23;34.60;32.20
72930;DHT22;61073;54.260;20.816;2022-08-01T14:52:53;34.60;32.30
72930;DHT22;61073;54.260;20.816;2022-08-01T14:55:19;34.60;32.20
72930;DHT22;61073;54.260;20.816;2022-08-01T14:57:49;34.50;32.40
72930;DHT22;61073;54.260;20.816;2022-08-01T15:00:16;34.50;32.40
72930;DHT22;61073;54.260;20.816;2022-08-01T15:02:43;34.60;32.60
72930;DHT22;61073;54.260;20.816;2022-08-01T15:05:10;34.60;32.50
72930;DHT22;61073;54.260;20.816;2022-08-01T15:07:36;34.50;32.50
72930;DHT22;61073;54.260;20.816;2022-08-01T15:10:05;34.50;32.50
72930;DHT22;61073;54.260;20.816;2022-08-01T15:12:32;34.50;32.50
72930;DHT22;61073;54.260;20.816;2022-08-01T15:15:10;34.50;32.60
72930;DHT22;61073;54.260;20.816;2022-08-01T15:17:36;34.40;32.80
72930;DHT22;61073;54.260;20.816;2022-08-01T15:20:04;34.40;32.80
72930;DHT22;61073;54.260;20.816;2022-08-01T15:22:31;34.30;33.00
72930;DHT22;61073;54.260;20.816;2022-08-01T15:24:58;34.20;33.20
72930;DHT22;61073;54.260;20.816;2022-08-01T15:27:26;34.10;33.20
72930;DHT22;61073;54.260;20.816;2022-08-01T15:29:53;34.00;33.60
72930;DHT22;61073;54.260;20.816;2022-08-01T15:32:19;33.80;33.70
72930;DHT22;61073;54.260;20.816;2022-08-01T15:34:46;33.80;33.80
72930;DHT22;61073;54.260;20.816;2022-08-01T15:37:13;33.70;34.10
72930;DHT22;61073;54.260;20.816;2022-08-01T15:39:41;33.50;34.30
72930;DHT22;61073;54.260;20.816;2022-08-01T15:42:09;32.60;36.00
72930;DHT22;61073;54.260;20.816;2022-08-01T15:44:36;31.50;38.40
72930;DHT22;61073;54.260;20.816;2022-08-01T15:47:04;30.60;40.10
72930;DHT22;61073;54.260;20.816;2022-08-01T15:49:31;30.00;41.20
72930;DHT22;61073;54.260;20.816;2022-08-01T15:51:58;29.60;42.10
72930;DHT22;61073;54.260;20.816;2022-08-01T15:54:24;29.20;42.90
72930;DHT22;61073;54.260;20.816;2022-08-01T15:56:51;29.00;43.30
72930;DHT22;61073;54.260;20.816;2022-08-01T15:59:17;28.90;43.70
72930;DHT22;61073;54.260;20.816;2022-08-01T16:01:44;28.90;43.60
72930;DHT22;61073;54.260;20.816;2022-08-01T16:04:11;29.00;43.40
72930;DHT22;61073;54.260;20.816;2022-08-01T16:06:37;28.90;43.40
72930;DHT22;61073;54.260;20.816;2022-08-01T16:09:05;28.70;44.10
72930;DHT22;61073;54.260;20.816;2022-08-01T16:11:31;28.50;44.50
72930;DHT22;61073;54.260;20.816;2022-08-01T16:13:58;28.50;44.70
72930;DHT22;61073;54.260;20.816;2022-08-01T16:16:25;28.40;44.90
72930;DHT22;61073;54.260;20.816;2022-08-01T16:18:51;28.30;44.90
72930;DHT22;61073;54.260;20.816;2022-08-01T16:21:18;28.50;44.90
72930;DHT22;61073;54.260;20.816;2022-08-01T16:23:45;28.80;43.90
72930;DHT22;61073;54.260;20.816;2022-08-01T16:26:11;29.40;42.60